Time;durP1;ratioP1;P1;durP2;ratioP2;P2;SDS_P1;SDS_P2;PMS_P1;PMS_P2;Temp;Humidity;BMP_temperature;BMP_pressure;BME280_temperature;BME280_humidity;BME280_pressure;Samples;Min_cycle;Max_cycle;Signal;HPM_P1;HPM_P2
2023/02/09 00:01:07;;;;;;;11.97;7.30;;;0.80;1.00;;;;;;5050461;28;20774;-56
2023/02/09 00:03:33;;;;;;;15.07;8.37;;;0.90;1.00;;;;;;5066478;28;20445;-56
2023/02/09 00:06:03;;;;;;;10.23;7.60;;;0.80;1.00;;;;;;5070622;28;20508;-55
2023/02/09 00:08:29;;;;;;;10.73;6.93;;;0.90;1.00;;;;;;5053678;28;20444;-54
2023/02/09 00:10:55;;;;;;;13.30;7.80;;;0.80;1.00;;;;;;5050647;28;20460;-54
2023/02/09 00:13:22;;;;;;;12.67;8.60;;;0.80;1.00;;;;;;5050462;28;20885;-55
2023/02/09 00:15:56;;;;;;;13.43;7.93;;;0.80;1.00;;;;;;5045373;28;20456;-55
2023/02/09 00:18:22;;;;;;;11.33;7.87;;;0.80;1.00;;;;;;5046394;28;20524;-56
2023/02/09 00:21:03;;;;;;;13.80;7.40;;;0.80;1.00;;;;;;5045285;28;20449;-53
2023/02/09 00:23:30;;;;;;;12.07;8.10;;;0.80;1.00;;;;;;5046239;28;21202;-53
2023/02/09 00:26:00;;;;;;;14.20;9.00;;;0.80;1.00;;;;;;5039200;28;21097;-52
2023/02/09 00:28:26;;;;;;;9.87;7.60;;;0.80;1.00;;;;;;5047564;28;20477;-54
2023/02/09 00:30:52;;;;;;;10.27;7.20;;;0.70;1.00;;;;;;5052894;28;22297;-57
2023/02/09 00:33:18;;;;;;;14.10;8.90;;;0.70;1.00;;;;;;5052111;28;21002;-54
2023/02/09 00:35:44;;;;;;;12.97;7.47;;;0.70;1.00;;;;;;5056232;28;20538;-52
2023/02/09 00:38:13;;;;;;;12.93;8.90;;;0.70;1.00;;;;;;5045439;28;20235;-54
2023/02/09 00:40:39;;;;;;;11.00;7.90;;;0.70;1.00;;;;;;5044293;28;20456;-51
2023/02/09 00:43:06;;;;;;;12.47;7.80;;;0.70;1.00;;;;;;5037186;28;20953;-55
2023/02/09 00:45:32;;;;;;;13.10;8.90;;;0.60;1.00;;;;;;5048291;28;20471;-54
2023/02/09 00:47:58;;;;;;;14.47;8.07;;;0.50;1.00;;;;;;5044340;28;21512;-54
2023/02/09 00:50:25;;;;;;;12.40;7.67;;;0.60;1.00;;;;;;5047068;28;20782;-55
2023/02/09 00:52:51;;;;;;;12.33;7.80;;;0.60;1.00;;;;;;5041343;28;20471;-55
2023/02/09 00:55:17;;;;;;;10.37;8.10;;;1.90;1.00;;;;;;5046240;28;20491;-53
2023/02/09 00:57:43;;;;;;;11.03;7.10;;;0.60;1.00;;;;;;5042511;28;20496;-54
2023/02/09 01:00:10;;;;;;;12.70;8.17;;;0.60;1.00;;;;;;5050474;28;20533;-53
2023/02/09 01:02:35;;;;;;;13.07;8.30;;;0.70;1.00;;;;;;5045034;28;20347;-53
2023/02/09 01:05:01;;;;;;;12.60;7.80;;;0.70;1.00;;;;;;5044277;28;20472;-54
2023/02/09 01:07:27;;;;;;;12.53;7.70;;;0.70;1.00;;;;;;5044242;28;20239;-54
2023/02/09 01:09:52;;;;;;;10.47;7.80;;;0.70;1.00;;;;;;5042541;28;20190;-53
2023/02/09 01:12:18;;;;;;;9.70;7.40;;;0.60;1.00;;;;;;5041828;28;20196;-55
2023/02/09 01:14:44;;;;;;;11.80;7.97;;;1.20;1.00;;;;;;5038390;28;20188;-54
2023/02/09 01:17:10;;;;;;;12.83;7.67;;;0.50;1.00;;;;;;5041040;28;20201;-54
2023/02/09 01:19:36;;;;;;;16.17;9.17;;;0.60;1.00;;;;;;5046520;28;20189;-53
2023/02/09 01:22:02;;;;;;;11.13;8.00;;;0.60;1.00;;;;;;5046366;28;20478;-52
2023/02/09 01:24:28;;;;;;;13.40;7.53;;;0.60;1.00;;;;;;5046039;28;20213;-55
2023/02/09 01:26:53;;;;;;;13.50;7.50;;;0.60;1.00;;;;;;5047393;28;20460;-54
2023/02/09 01:29:20;;;;;;;11.43;8.40;;;0.70;1.00;;;;;;5045610;28;20270;-53
2023/02/09 01:31:47;;;;;;;10.40;7.00;;;0.70;1.00;;;;;;5043058;28;20647;-56
2023/02/09 01:34:15;;;;;;;13.27;8.10;;;0.70;1.00;;;;;;5044970;28;20448;-56
2023/02/09 01:36:41;;;;;;;11.20;7.23;;;0.70;1.00;;;;;;5056561;28;20961;-55
2023/02/09 01:39:08;;;;;;;11.73;8.80;;;0.60;1.00;;;;;;5043079;28;20456;-52
2023/02/09 01:41:34;;;;;;;11.57;8.50;;;0.60;1.00;;;;;;5042909;28;20461;-53
2023/02/09 01:44:05;;;;;;;12.57;8.80;;;0.60;1.00;;;;;;5048867;28;20510;-53
2023/02/09 01:46:33;;;;;;;14.10;9.10;;;0.60;1.00;;;;;;5052185;28;20188;-54
2023/02/09 01:49:20;;;;;;;12.87;8.40;;;0.60;1.00;;;;;;5044696;28;21191;-55
2023/02/09 01:51:58;;;;;;;25.30;8.10;;;0.50;1.00;;;;;;5044948;28;21111;-56
2023/02/09 01:54:44;;;;;;;15.20;9.17;;;0.50;1.00;;;;;;5050834;28;20472;-55
2023/02/09 01:57:17;;;;;;;13.10;8.53;;;0.50;1.00;;;;;;5052723;28;20521;-55
2023/02/09 01:59:45;;;;;;;11.40;8.23;;;0.50;1.00;;;;;;5046308;28;20468;-57
2023/02/09 02:02:12;;;;;;;13.83;8.60;;;0.50;1.00;;;;;;5051243;28;20436;-54
2023/02/09 02:04:38;;;;;;;15.20;7.90;;;0.50;1.00;;;;;;5049809;28;20499;-54
2023/02/09 02:07:17;;;;;;;10.43;7.00;;;0.60;1.00;;;;;;5056102;28;20449;-54
2023/02/09 02:09:44;;;;;;;13.63;7.50;;;0.60;1.00;;;;;;5050748;28;20470;-52
2023/02/09 02:12:10;;;;;;;12.77;8.20;;;0.60;1.00;;;;;;5045493;28;20440;-54
2023/02/09 02:14:38;;;;;;;11.87;7.57;;;0.60;1.00;;;;;;5048929;28;20451;-56
2023/02/09 02:17:14;;;;;;;12.47;8.23;;;0.70;1.00;;;;;;5049342;28;20837;-55
2023/02/09 02:20:13;;;;;;;16.67;8.47;;;0.60;1.00;;;;;;5050576;28;20830;-53
2023/02/09 02:22:59;;;;;;;10.60;8.33;;;0.60;1.00;;;;;;5044398;28;20451;-56
2023/02/09 02:25:42;;;;;;;10.83;7.80;;;0.50;1.00;;;;;;5048783;28;20476;-55
2023/02/09 02:28:35;;;;;;;15.00;9.37;;;0.50;1.00;;;;;;5046304;28;20936;-56
2023/02/09 02:31:38;;;;;;;15.00;8.70;;;0.40;1.00;;;;;;5049760;28;20453;-54
2023/02/09 02:34:23;;;;;;;15.13;8.77;;;0.50;1.00;;;;;;5047379;28;20499;-54
2023/02/09 02:37:08;;;;;;;10.80;8.03;;;0.40;1.00;;;;;;5043280;28;21676;-56
2023/02/09 02:39:34;;;;;;;12.33;8.33;;;0.40;1.00;;;;;;5048707;28;20444;-56
2023/02/09 02:45:20;;;;;;;13.37;8.73;;;0.30;1.00;;;;;;5061058;28;20275;-51
2023/02/09 02:48:08;;;;;;;11.97;7.93;;;0.30;1.00;;;;;;5050101;28;20441;-56
2023/02/09 02:50:38;;;;;;;16.00;9.50;;;0.30;1.00;;;;;;5047363;28;21019;-57
2023/02/09 02:53:07;;;;;;;13.03;9.57;;;0.30;1.00;;;;;;5048973;28;20826;-53
2023/02/09 02:55:35;;;;;;;15.90;9.67;;;0.40;1.00;;;;;;5045262;28;20448;-54
2023/02/09 02:58:07;;;;;;;14.10;8.87;;;0.40;1.00;;;;;;5045669;28;20535;-52
2023/02/09 03:00:41;;;;;;;13.43;9.70;;;0.30;1.00;;;;;;5046636;28;20537;-55
2023/02/09 03:03:15;;;;;;;14.93;9.63;;;0.30;1.00;;;;;;5044947;28;20448;-54
2023/02/09 03:05:42;;;;;;;15.87;11.17;;;0.30;1.00;;;;;;5046760;28;20689;-53
2023/02/09 03:08:08;;;;;;;17.30;10.30;;;0.30;1.00;;;;;;5047298;28;20443;-55
2023/02/09 03:10:37;;;;;;;15.40;10.37;;;0.30;1.00;;;;;;5054020;28;20940;-55
2023/02/09 03:13:20;;;;;;;17.10;11.20;;;0.20;1.00;;;;;;5042761;28;20185;-52
2023/02/09 03:15:59;;;;;;;16.83;9.50;;;0.20;1.00;;;;;;5050207;28;20526;-56
2023/02/09 03:18:35;;;;;;;15.27;10.03;;;0.10;1.00;;;;;;5040812;28;21062;-56
2023/02/09 03:21:33;;;;;;;19.57;11.17;;;0.00;1.00;;;;;;5053042;28;20501;-56
2023/02/09 03:24:04;;;;;;;17.37;10.07;;;-0.10;1.00;;;;;;5048461;28;20582;-54
2023/02/09 03:26:50;;;;;;;18.37;10.80;;;0.00;1.00;;;;;;5042315;28;20505;-54
2023/02/09 03:29:18;;;;;;;18.13;11.50;;;0.00;1.00;;;;;;5046212;28;20460;-54
2023/02/09 03:31:45;;;;;;;15.23;10.07;;;-0.10;1.00;;;;;;5043611;28;20487;-53
2023/02/09 03:34:11;;;;;;;20.20;11.30;;;-0.10;1.00;;;;;;5048758;28;21218;-52
2023/02/09 03:36:38;;;;;;;16.87;11.43;;;-0.10;1.00;;;;;;5052810;28;20528;-57
2023/02/09 03:39:04;;;;;;;19.63;11.53;;;-0.10;1.00;;;;;;5049616;28;20546;-57
2023/02/09 03:41:29;;;;;;;14.00;10.13;;;0.00;1.00;;;;;;5044328;28;20449;-55
2023/02/09 03:46:42;;;;;;;18.00;11.43;;;0.20;1.00;;;;;;5049698;28;20250;-54
2023/02/09 03:49:08;;;;;;;16.70;10.27;;;0.20;1.00;;;;;;5045972;28;20494;-55
2023/02/09 03:51:33;;;;;;;15.70;11.00;;;0.30;1.00;;;;;;5045527;28;20455;-55
2023/02/09 03:53:59;;;;;;;19.70;11.40;;;0.30;1.00;;;;;;5045470;28;20491;-54
2023/02/09 03:56:25;;;;;;;16.30;10.40;;;0.30;1.00;;;;;;5046150;28;20259;-54
2023/02/09 03:58:51;;;;;;;19.17;10.43;;;0.30;1.00;;;;;;5047127;28;20197;-55
2023/02/09 04:01:17;;;;;;;15.70;10.90;;;0.40;1.00;;;;;;5047006;28;20189;-53
2023/02/09 04:03:42;;;;;;;16.13;10.20;;;0.30;1.00;;;;;;5054285;28;20998;-55
2023/02/09 04:06:11;;;;;;;16.80;11.20;;;0.30;1.00;;;;;;5054070;28;20474;-56
2023/02/09 04:08:37;;;;;;;18.70;11.30;;;0.30;1.00;;;;;;5044870;28;20282;-55
2023/02/09 04:11:03;;;;;;;18.13;10.30;;;0.30;1.00;;;;;;5046167;28;20455;-53
2023/02/09 04:13:29;;;;;;;19.83;10.27;;;0.30;1.00;;;;;;5041102;28;20225;-54
2023/02/09 04:15:54;;;;;;;15.97;10.50;;;0.30;1.00;;;;;;5048087;28;20491;-56
2023/02/09 04:18:20;;;;;;;18.73;11.20;;;0.40;1.00;;;;;;5040084;28;20206;-54
2023/02/09 04:20:46;;;;;;;17.13;11.23;;;0.30;1.00;;;;;;5046651;28;20682;-53
2023/02/09 04:23:11;;;;;;;16.70;12.10;;;0.30;1.00;;;;;;5046173;28;20616;-55
2023/02/09 04:25:37;;;;;;;18.37;12.17;;;0.20;1.00;;;;;;5040395;28;20213;-53
2023/02/09 04:28:03;;;;;;;18.50;12.13;;;0.20;1.00;;;;;;5045354;28;20192;-52
2023/02/09 04:30:28;;;;;;;24.87;12.67;;;0.10;1.00;;;;;;5053578;28;20658;-54
2023/02/09 04:32:54;;;;;;;22.07;13.53;;;0.00;1.00;;;;;;5057257;28;20441;-56
2023/02/09 04:35:20;;;;;;;19.60;12.70;;;-0.10;1.00;;;;;;5047877;28;20598;-54
2023/02/09 04:37:45;;;;;;;22.87;13.93;;;-0.20;1.00;;;;;;5039898;28;20193;-53
2023/02/09 04:40:12;;;;;;;20.10;14.47;;;-0.10;1.00;;;;;;5042338;28;20189;-54
2023/02/09 04:42:37;;;;;;;24.27;12.47;;;-0.10;1.00;;;;;;5043875;28;20181;-52
2023/02/09 04:45:04;;;;;;;19.40;12.90;;;-0.20;1.00;;;;;;5047324;28;20493;-56
2023/02/09 04:47:30;;;;;;;22.10;13.70;;;-0.30;1.00;;;;;;5041144;28;20187;-54
2023/02/09 04:49:56;;;;;;;24.00;13.73;;;-0.40;1.00;;;;;;5047080;28;20459;-55
2023/02/09 04:52:21;;;;;;;24.93;13.50;;;-0.50;1.00;;;;;;5044940;28;20239;-54
2023/02/09 04:54:47;;;;;;;21.23;13.40;;;-0.50;1.00;;;;;;5045429;28;20196;-55
2023/02/09 04:59:57;;;;;;;22.80;14.33;;;-0.80;1.00;;;;;;5043998;28;21184;-53
2023/02/09 05:02:22;;;;;;;21.40;12.97;;;-0.80;1.00;;;;;;5046786;28;20540;-52
2023/02/09 05:04:48;;;;;;;26.83;15.00;;;-0.90;1.00;;;;;;5045425;28;20219;-55
2023/02/09 05:07:13;;;;;;;21.27;13.63;;;-1.10;1.00;;;;;;5044515;28;20216;-54
2023/02/09 05:09:39;;;;;;;23.83;13.63;;;-1.10;1.00;;;;;;5048515;28;20193;-55
2023/02/09 05:12:08;;;;;;;24.00;15.00;;;-1.20;1.00;;;;;;5043126;28;20185;-53
2023/02/09 05:14:34;;;;;;;20.87;12.40;;;-1.30;1.00;;;;;;5041921;28;20727;-53
2023/02/09 05:17:00;;;;;;;24.00;13.40;;;-1.30;1.00;;;;;;5044878;28;20545;-55
2023/02/09 05:19:26;;;;;;;19.73;13.33;;;-1.40;1.00;;;;;;5044292;28;20214;-54
2023/02/09 05:21:51;;;;;;;21.43;11.97;;;-1.40;1.00;;;;;;5043447;28;20383;-53
2023/02/09 05:24:17;;;;;;;20.73;13.30;;;-1.50;1.00;;;;;;5046317;28;20185;-52
2023/02/09 05:26:42;;;;;;;21.00;13.57;;;-1.50;1.00;;;;;;5043158;28;20181;-52
2023/02/09 05:29:08;;;;;;;20.27;12.70;;;-1.60;1.00;;;;;;5045367;28;20634;-53
2023/02/09 05:31:34;;;;;;;20.87;14.23;;;-1.60;1.00;;;;;;5042603;28;20190;-55
2023/02/09 05:33:59;;;;;;;23.67;13.20;;;-1.60;1.00;;;;;;5045358;28;20181;-54
2023/02/09 05:36:25;;;;;;;22.47;13.50;;;-1.70;1.00;;;;;;5044389;28;20212;-53
2023/02/09 05:38:51;;;;;;;24.60;12.73;;;-1.70;1.00;;;;;;5039206;28;20473;-54
2023/02/09 05:44:01;;;;;;;25.23;12.40;;;-1.70;1.00;;;;;;5055516;28;20229;-54
2023/02/09 05:46:27;;;;;;;22.90;13.37;;;-1.50;1.00;;;;;;5068776;28;20469;-55
2023/02/09 05:48:52;;;;;;;18.80;12.57;;;-1.50;1.00;;;;;;5045429;28;20478;-55
2023/02/09 05:51:18;;;;;;;18.50;12.13;;;-1.50;1.00;;;;;;5046688;28;20196;-53
2023/02/09 05:53:43;;;;;;;19.40;12.00;;;-1.50;1.00;;;;;;5048402;28;20271;-55
2023/02/09 05:56:09;;;;;;;18.30;12.87;;;-1.60;1.00;;;;;;5052231;28;20735;-55
2023/02/09 05:58:34;;;;;;;25.27;14.30;;;-1.60;1.00;;;;;;5042668;28;20192;-54
2023/02/09 06:01:00;;;;;;;19.50;11.70;;;-1.60;1.00;;;;;;5047296;28;20196;-55
2023/02/09 06:03:26;;;;;;;19.43;11.10;;;-1.60;1.00;;;;;;5047555;28;20194;-55
2023/02/09 06:05:52;;;;;;;20.87;12.93;;;-1.60;1.00;;;;;;5048319;28;20210;-55
2023/02/09 06:08:17;;;;;;;19.83;12.93;;;-1.70;1.00;;;;;;5050741;28;20221;-53
2023/02/09 06:10:43;;;;;;;19.13;11.30;;;-1.70;1.00;;;;;;5058734;28;20176;-56
2023/02/09 06:13:08;;;;;;;25.43;13.00;;;-1.70;1.00;;;;;;5047611;28;20238;-55
2023/02/09 06:15:34;;;;;;;25.10;14.27;;;-1.70;1.00;;;;;;5040067;28;20193;-53
2023/02/09 06:18:00;;;;;;;23.47;13.97;;;-1.70;1.00;;;;;;5041837;28;20688;-52
2023/02/09 06:20:25;;;;;;;26.67;12.67;;;-2.00;1.00;;;;;;5046506;28;20204;-54
2023/02/09 06:22:51;;;;;;;32.00;13.93;;;-2.20;1.00;;;;;;5043660;28;20215;-55
2023/02/09 06:25:17;;;;;;;30.17;17.27;;;-2.50;1.00;;;;;;5041884;28;20216;-54
2023/02/09 06:27:42;;;;;;;26.53;13.50;;;-2.60;1.00;;;;;;5041873;28;20647;-56
2023/02/09 06:30:09;;;;;;;21.43;14.10;;;-2.50;1.00;;;;;;5046013;28;20263;-55
2023/02/09 06:32:34;;;;;;;25.83;13.77;;;-2.50;1.00;;;;;;5046851;28;20190;-54
2023/02/09 06:35:00;;;;;;;30.50;13.40;;;-2.40;1.00;;;;;;5045368;28;20971;-54
2023/02/09 06:37:25;;;;;;;23.83;14.43;;;-2.40;1.00;;;;;;5039044;28;20197;-52
2023/02/09 06:39:51;;;;;;;28.93;16.60;;;-2.40;1.00;;;;;;5043423;28;20188;-53
2023/02/09 06:42:17;;;;;;;24.03;15.43;;;-2.40;1.00;;;;;;5043003;28;20196;-54
2023/02/09 06:44:42;;;;;;;22.43;13.60;;;-2.40;1.00;;;;;;5049177;28;20685;-53
2023/02/09 06:47:08;;;;;;;25.10;13.20;;;-2.50;1.00;;;;;;5043487;28;20216;-51
2023/02/09 06:49:34;;;;;;;29.27;15.77;;;-2.50;1.00;;;;;;5046335;28;20196;-53
2023/02/09 06:51:59;;;;;;;28.37;15.07;;;-2.40;1.00;;;;;;5046342;28;20236;-54
2023/02/09 06:54:27;;;;;;;25.97;14.37;;;-2.40;1.00;;;;;;5051181;28;20756;-54
2023/02/09 06:56:52;;;;;;;25.83;14.00;;;-2.40;1.00;;;;;;5048711;28;20309;-52
2023/02/09 06:59:18;;;;;;;29.37;15.27;;;-2.30;1.00;;;;;;5047291;28;20530;-55
2023/02/09 07:01:47;;;;;;;24.03;13.67;;;-2.30;1.00;;;;;;5045627;28;20725;-53
2023/02/09 07:04:13;;;;;;;24.27;13.40;;;-2.20;1.00;;;;;;5049813;28;20443;-55
2023/02/09 07:06:38;;;;;;;28.07;15.27;;;-2.20;1.00;;;;;;5047247;28;20478;-55
2023/02/09 07:09:04;;;;;;;23.33;13.17;;;-2.10;1.00;;;;;;5047239;28;20200;-53
2023/02/09 07:11:30;;;;;;;25.77;12.87;;;-2.00;1.00;;;;;;5041750;28;20575;-53
2023/02/09 07:13:55;;;;;;;23.43;13.17;;;-2.00;1.00;;;;;;5043692;28;20238;-51
2023/02/09 07:16:21;;;;;;;20.50;13.10;;;-1.90;1.00;;;;;;5049303;28;20190;-55
2023/02/09 07:18:46;;;;;;;28.97;14.27;;;-2.00;1.00;;;;;;5047046;28;20224;-55
2023/02/09 07:21:17;;;;;;;22.73;11.70;;;-2.00;1.00;;;;;;5044669;28;20475;-54
2023/02/09 07:23:43;;;;;;;19.80;12.90;;;-2.00;1.00;;;;;;5048959;28;20190;-56
2023/02/09 07:26:14;;;;;;;24.00;14.03;;;-2.00;1.00;;;;;;5054978;28;21007;-54
2023/02/09 07:28:40;;;;;;;22.90;14.10;;;-1.90;1.00;;;;;;5045354;28;20451;-57
2023/02/09 07:31:09;;;;;;;21.10;13.53;;;-1.90;1.00;;;;;;5045177;28;20447;-54
2023/02/09 07:33:35;;;;;;;25.03;13.90;;;-1.80;1.00;;;;;;5055376;28;20453;-54
2023/02/09 07:36:06;;;;;;;23.57;13.37;;;-1.70;1.00;;;;;;5045311;28;20995;-53
2023/02/09 07:38:32;;;;;;;26.00;14.50;;;-1.80;1.00;;;;;;5047222;28;20786;-52
2023/02/09 07:40:59;;;;;;;22.90;14.10;;;-1.80;1.00;;;;;;5047852;28;20562;-54
2023/02/09 07:43:25;;;;;;;26.37;14.30;;;-1.80;1.00;;;;;;5055513;28;20457;-55
2023/02/09 07:45:51;;;;;;;21.30;14.40;;;-1.80;1.00;;;;;;5042452;28;20475;-56
2023/02/09 07:48:16;;;;;;;27.50;15.67;;;-1.70;1.00;;;;;;5056321;28;20936;-55
2023/02/09 07:50:49;;;;;;;20.17;14.17;;;-1.60;1.00;;;;;;5048798;28;20194;-56
2023/02/09 07:53:15;;;;;;;31.03;17.60;;;-1.70;1.00;;;;;;5052759;28;20698;-55
2023/02/09 07:55:41;;;;;;;21.77;15.33;;;-1.70;1.00;;;;;;5049536;28;20442;-57
2023/02/09 07:58:06;;;;;;;31.47;17.17;;;-1.60;1.00;;;;;;5045199;28;20449;-55
2023/02/09 08:00:32;;;;;;;26.37;18.77;;;-1.60;1.00;;;;;;5048016;28;20800;-54
2023/02/09 08:02:59;;;;;;;29.97;17.53;;;-1.50;1.00;;;;;;5049141;28;20214;-56
2023/02/09 08:05:36;;;;;;;28.60;17.70;;;-1.40;1.00;;;;;;5048391;28;20333;-55
2023/02/09 08:08:01;;;;;;;27.97;17.87;;;-1.20;1.00;;;;;;5040446;28;20459;-54
2023/02/09 08:10:27;;;;;;;27.57;17.03;;;-1.10;1.00;;;;;;5048155;28;20436;-54
2023/02/09 08:13:00;;;;;;;27.90;17.50;;;-0.90;1.00;;;;;;5046161;28;20535;-55
2023/02/09 08:15:59;;;;;;;26.83;18.13;;;-0.90;1.00;;;;;;5048699;28;20239;-55
2023/02/09 08:18:31;;;;;;;24.37;15.80;;;-0.90;1.00;;;;;;5038270;28;20459;-56
2023/02/09 08:20:57;;;;;;;27.23;16.10;;;-0.80;1.00;;;;;;5046434;28;20447;-54
2023/02/09 08:23:29;;;;;;;23.03;16.03;;;-0.70;1.00;;;;;;5046370;28;20451;-54
2023/02/09 08:25:57;;;;;;;29.93;18.23;;;-0.60;1.00;;;;;;5047506;28;20472;-54
2023/02/09 08:28:23;;;;;;;25.30;17.10;;;-0.50;1.00;;;;;;5047174;28;20941;-57
2023/02/09 08:30:49;;;;;;;36.50;19.00;;;-0.40;1.00;;;;;;5039958;28;20458;-54
2023/02/09 08:33:15;;;;;;;30.80;19.20;;;0.10;1.00;;;;;;5047733;28;20439;-55
2023/02/09 08:35:41;;;;;;;28.47;18.10;;;-0.30;1.00;;;;;;5046383;28;20480;-56
2023/02/09 08:38:07;;;;;;;35.93;20.20;;;-0.20;1.00;;;;;;5043729;28;20969;-55
2023/02/09 08:40:35;;;;;;;28.00;17.80;;;0.00;1.00;;;;;;5043453;28;20479;-56
2023/02/09 08:43:02;;;;;;;27.93;16.60;;;0.20;1.00;;;;;;5045902;28;20452;-54
2023/02/09 08:45:27;;;;;;;35.27;20.63;;;0.40;1.00;;;;;;5046096;28;20474;-55
2023/02/09 08:47:53;;;;;;;31.83;20.50;;;0.50;1.00;;;;;;5044907;28;20458;-56
2023/02/09 08:50:19;;;;;;;26.47;17.53;;;0.70;1.00;;;;;;5046238;28;20193;-55
2023/02/09 08:52:44;;;;;;;24.73;16.03;;;1.00;1.00;;;;;;5045329;28;20474;-55
2023/02/09 08:55:10;;;;;;;26.80;15.63;;;1.30;1.00;;;;;;5047777;28;20196;-55
2023/02/09 08:57:36;;;;;;;26.50;16.53;;;1.40;1.00;;;;;;5044269;28;20197;-56
2023/02/09 09:00:03;;;;;;;30.57;20.17;;;1.50;1.00;;;;;;5044394;28;20276;-55
2023/02/09 09:02:29;;;;;;;27.97;16.63;;;1.90;1.00;;;;;;5041369;28;20187;-56
2023/02/09 09:04:54;;;;;;;22.27;14.60;;;2.10;1.00;;;;;;5043105;28;20482;-55
2023/02/09 09:07:20;;;;;;;24.70;14.93;;;2.00;1.00;;;;;;5043991;28;20198;-55
2023/02/09 09:09:45;;;;;;;24.43;15.40;;;1.90;1.00;;;;;;5043830;28;20186;-55
2023/02/09 09:12:11;;;;;;;22.17;15.77;;;1.80;1.00;;;;;;5045965;28;20548;-56
2023/02/09 09:14:38;;;;;;;23.00;15.10;;;1.60;1.00;;;;;;5041766;28;20224;-56
2023/02/09 09:17:04;;;;;;;25.23;16.70;;;1.60;1.00;;;;;;5047438;28;20217;-56
2023/02/09 09:19:31;;;;;;;26.63;16.30;;;3.70;1.00;;;;;;5048998;28;20476;-54
2023/02/09 09:21:59;;;;;;;19.20;14.37;;;1.80;1.00;;;;;;5046075;28;21166;-54
2023/02/09 09:24:27;;;;;;;25.70;15.00;;;1.90;1.00;;;;;;5048316;28;20454;-54
2023/02/09 09:26:54;;;;;;;23.70;14.57;;;1.90;1.00;;;;;;5048749;28;20445;-55
2023/02/09 09:29:19;;;;;;;26.40;16.23;;;2.10;1.00;;;;;;5042070;28;20464;-56
2023/02/09 09:31:45;;;;;;;22.57;15.07;;;2.20;1.00;;;;;;5045687;28;20574;-57
2023/02/09 09:34:10;;;;;;;22.50;16.40;;;2.30;1.00;;;;;;5046494;28;20202;-55
2023/02/09 09:36:36;;;;;;;23.00;14.60;;;2.40;1.00;;;;;;5041709;28;20817;-54
2023/02/09 09:39:02;;;;;;;20.60;13.17;;;2.50;1.00;;;;;;5044761;28;20201;-54
2023/02/09 09:41:32;;;;;;;21.80;13.70;;;2.60;1.00;;;;;;5040799;28;20770;-55
2023/02/09 09:43:59;;;;;;;17.47;12.77;;;2.50;1.00;;;;;;5043343;28;20460;-56
2023/02/09 09:46:37;;;;;;;17.37;12.20;;;2.60;1.00;;;;;;5046573;28;20498;-55
2023/02/09 09:49:03;;;;;;;20.80;14.37;;;2.80;1.00;;;;;;5047821;28;20444;-55
2023/02/09 09:51:41;;;;;;;17.30;11.67;;;2.80;1.00;;;;;;5044537;28;20948;-60
2023/02/09 09:54:23;;;;;;;20.57;13.53;;;2.90;1.00;;;;;;5048081;28;20490;-55
2023/02/09 09:56:50;;;;;;;20.97;13.57;;;2.90;1.00;;;;;;5046835;28;20448;-55
2023/02/09 09:59:19;;;;;;;15.07;11.00;;;2.80;1.00;;;;;;5048313;28;21102;-55
2023/02/09 10:01:47;;;;;;;18.40;12.53;;;2.90;1.00;;;;;;5049098;28;20965;-54
2023/02/09 10:04:14;;;;;;;24.47;12.00;;;3.10;1.00;;;;;;5047428;28;20451;-56
2023/02/09 10:06:43;;;;;;;15.97;11.90;;;3.10;1.00;;;;;;5048598;28;20473;-54
2023/02/09 10:09:44;;;;;;;18.63;12.77;;;3.20;1.00;;;;;;5048613;28;20536;-55
2023/02/09 10:12:36;;;;;;;17.00;12.30;;;3.40;1.00;;;;;;5024272;28;20956;-56
2023/02/09 10:15:23;;;;;;;19.73;11.63;;;3.50;1.00;;;;;;5052019;28;20440;-54
2023/02/09 10:17:49;;;;;;;21.63;13.20;;;3.60;1.00;;;;;;5052734;28;20444;-56
2023/02/09 10:20:14;;;;;;;21.43;12.40;;;3.80;1.00;;;;;;5052507;28;20440;-54
2023/02/09 10:22:43;;;;;;;15.00;11.00;;;4.00;99.90;;;;;;5052190;28;20199;-54
2023/02/09 10:25:35;;;;;;;26.00;13.40;;;4.10;99.90;;;;;;5052264;28;20219;-54
2023/02/09 10:28:05;;;;;;;16.90;11.83;;;4.00;99.90;;;;;;5049950;28;20441;-55
2023/02/09 10:30:31;;;;;;;15.63;10.60;;;4.10;99.90;;;;;;5052494;28;20447;-55
2023/02/09 10:33:01;;;;;;;16.47;11.40;;;4.10;99.90;;;;;;5050828;28;20436;-56
2023/02/09 10:35:40;;;;;;;16.47;11.67;;;4.20;99.90;;;;;;5052391;28;20790;-54
2023/02/09 10:38:21;;;;;;;16.53;11.53;;;4.30;99.90;;;;;;5052337;28;20440;-55
2023/02/09 10:40:47;;;;;;;16.80;11.77;;;4.50;99.90;;;;;;5048172;28;21173;-54
2023/02/09 10:43:20;;;;;;;17.70;12.00;;;4.70;99.90;;;;;;5051725;28;20460;-55
2023/02/09 10:45:53;;;;;;;11.90;9.80;;;4.90;99.90;;;;;;5068748;28;20467;-55
2023/02/09 10:48:21;;;;;;;19.30;11.63;;;5.00;99.90;;;;;;5071702;28;20439;-55
2023/02/09 10:51:07;;;;;;;16.97;12.33;;;5.00;99.90;;;;;;5055460;28;20467;-55
2023/02/09 10:53:56;;;;;;;16.30;10.97;;;5.20;99.90;;;;;;5046335;28;20450;-55
2023/02/09 10:56:25;;;;;;;18.30;11.40;;;5.30;99.90;;;;;;5045373;28;20449;-55
2023/02/09 10:59:00;;;;;;;16.03;11.20;;;5.50;99.90;;;;;;5050245;28;20467;-55
2023/02/09 11:01:33;;;;;;;15.00;11.40;;;5.50;99.90;;;;;;5045658;28;20479;-55
2023/02/09 11:04:03;;;;;;;17.00;11.67;;;5.50;99.90;;;;;;5072140;28;20497;-53
2023/02/09 11:06:45;;;;;;;16.40;11.73;;;5.60;99.90;;;;;;5047279;28;20511;-54
2023/02/09 11:09:33;;;;;;;20.73;11.70;;;5.70;99.90;;;;;;5049603;28;20441;-55
2023/02/09 11:11:59;;;;;;;14.37;10.63;;;5.70;99.90;;;;;;5057418;28;20445;-55
2023/02/09 11:14:25;;;;;;;15.37;10.07;;;5.80;99.90;;;;;;5044819;28;20829;-55
2023/02/09 11:17:09;;;;;;;19.50;10.63;;;5.90;99.90;;;;;;5050794;28;20488;-56
2023/02/09 11:20:04;;;;;;;16.00;10.80;;;5.90;99.90;;;;;;5048465;28;20696;-55
2023/02/09 11:23:14;;;;;;;13.17;9.53;;;6.00;99.90;;;;;;5059029;28;21080;-55
2023/02/09 11:25:53;;;;;;;28.20;11.27;;;6.30;99.90;;;;;;5049334;28;20481;-55
2023/02/09 11:29:15;;;;;;;14.20;10.30;;;6.30;99.90;;;;;;5049007;28;20445;-54
2023/02/09 11:31:43;;;;;;;13.57;10.30;;;6.30;99.90;;;;;;5008530;28;20532;-55
2023/02/09 11:34:26;;;;;;;15.33;9.80;;;6.40;99.90;;;;;;5036729;28;20444;-56
2023/02/09 11:37:26;;;;;;;16.17;10.83;;;6.50;99.90;;;;;;5050969;28;20891;-55
2023/02/09 11:40:20;;;;;;;16.20;10.80;;;6.50;99.90;;;;;;5047942;28;20428;-56
2023/02/09 11:43:04;;;;;;;12.90;9.90;;;6.60;99.90;;;;;;5047935;28;20449;-55
2023/02/09 11:45:43;;;;;;;13.90;9.43;;;6.40;99.90;;;;;;5056601;28;20837;-57
2023/02/09 11:48:26;;;;;;;15.30;9.57;;;6.40;99.90;;;;;;5071060;28;20798;-56
2023/02/09 11:51:10;;;;;;;16.30;10.33;;;6.50;99.90;;;;;;5054311;28;20443;-55
2023/02/09 11:54:03;;;;;;;13.70;9.73;;;6.60;99.90;;;;;;5050649;28;20470;-54
2023/02/09 11:56:30;;;;;;;15.53;10.40;;;6.70;99.90;;;;;;5060753;28;20540;-55
2023/02/09 11:58:56;;;;;;;13.57;9.60;;;6.50;99.90;;;;;;5070410;28;20472;-56
2023/02/09 12:01:21;;;;;;;10.70;8.63;;;6.40;99.90;;;;;;5067624;28;20538;-55
2023/02/09 12:04:15;;;;;;;14.63;9.43;;;6.50;99.90;;;;;;5064511;28;20192;-55
2023/02/09 12:06:45;;;;;;;13.00;9.10;;;6.60;99.90;;;;;;5035936;28;20231;-56
2023/02/09 12:09:19;;;;;;;21.47;10.60;;;6.70;99.90;;;;;;5048101;28;20495;-55
2023/02/09 12:11:58;;;;;;;17.03;10.20;;;6.60;99.90;;;;;;5050786;28;20779;-54
2023/02/09 12:14:46;;;;;;;11.97;8.80;;;6.60;99.90;;;;;;5050469;28;20506;-55
2023/02/09 12:17:20;;;;;;;17.10;9.73;;;6.60;99.90;;;;;;5050229;28;20496;-55
2023/02/09 12:20:00;;;;;;;13.07;9.23;;;6.70;99.90;;;;;;5047046;28;20441;-56
2023/02/09 12:22:32;;;;;;;13.40;9.77;;;6.90;99.90;;;;;;5049695;28;20434;-54
2023/02/09 12:25:16;;;;;;;13.10;9.67;;;8.40;99.90;;;;;;5050301;28;20568;-55
2023/02/09 12:28:02;;;;;;;13.37;10.20;;;6.80;99.90;;;;;;5046458;28;20445;-57
2023/02/09 12:30:51;;;;;;;13.17;10.33;;;6.70;99.90;;;;;;5053573;28;20478;-55
2023/02/09 12:33:23;;;;;;;15.30;10.03;;;6.90;99.90;;;;;;5049286;28;20450;-56
2023/02/09 12:36:07;;;;;;;15.10;10.50;;;6.80;99.90;;;;;;5046044;28;20448;-55
2023/02/09 12:38:51;;;;;;;19.03;9.70;;;6.70;99.90;;;;;;5045838;28;20470;-55
2023/02/09 12:41:20;;;;;;;16.57;11.30;;;6.70;99.90;;;;;;5048868;28;20534;-56
2023/02/09 12:43:46;;;;;;;16.03;11.30;;;6.80;99.90;;;;;;5049973;28;20536;-56
2023/02/09 12:46:12;;;;;;;17.30;12.00;;;6.80;99.90;;;;;;5047559;28;20497;-56
2023/02/09 12:49:07;;;;;;;16.60;10.80;;;6.70;99.90;;;;;;5045655;28;20453;-55
2023/02/09 12:51:45;;;;;;;16.93;11.20;;;6.60;99.90;;;;;;5049756;28;20265;-57
2023/02/09 12:54:34;;;;;;;20.33;12.90;;;6.60;99.90;;;;;;5041916;28;20830;-55
2023/02/09 12:57:21;;;;;;;19.20;13.00;;;6.50;99.90;;;;;;5048123;28;20441;-56
2023/02/09 12:59:49;;;;;;;23.70;13.17;;;6.40;99.90;;;;;;5036079;28;20459;-56
2023/02/09 13:02:28;;;;;;;23.00;13.27;;;6.50;99.90;;;;;;5045598;28;20553;-56
2023/02/09 13:05:17;;;;;;;14.87;11.57;;;6.60;99.90;;;;;;5048517;28;20472;-56
2023/02/09 13:08:07;;;;;;;17.40;11.60;;;6.60;99.90;;;;;;5045852;28;20455;-56
2023/02/09 13:10:50;;;;;;;16.30;11.77;;;6.50;99.90;;;;;;5047604;28;20449;-54
2023/02/09 13:13:33;;;;;;;17.97;12.70;;;6.70;99.90;;;;;;5048905;28;20446;-56
2023/02/09 13:16:15;;;;;;;18.93;12.83;;;6.70;99.90;;;;;;5048223;28;20460;-56